sensor_id;sensor_type;location;lat;lon;timestamp;temperature;humidity
40516;DHT22;26216;53.724;9.898;2023-04-06T00:01:52;3.90;80.10
40516;DHT22;26216;53.724;9.898;2023-04-06T00:04:18;3.90;80.10
40516;DHT22;26216;53.724;9.898;2023-04-06T00:06:44;3.90;80.10
40516;DHT22;26216;53.724;9.898;2023-04-06T00:09:09;3.90;80.30
40516;DHT22;26216;53.724;9.898;2023-04-06T00:11:35;3.90;80.50
40516;DHT22;26216;53.724;9.898;2023-04-06T00:14:01;3.80;80.30
40516;DHT22;26216;53.724;9.898;2023-04-06T00:16:27;3.80;80.30
40516;DHT22;26216;53.724;9.898;2023-04-06T00:18:53;3.80;80.30
40516;DHT22;26216;53.724;9.898;2023-04-06T00:21:19;3.80;80.40
40516;DHT22;26216;53.724;9.898;2023-04-06T00:23:45;3.80;80.40
40516;DHT22;26216;53.724;9.898;2023-04-06T00:26:11;3.70;80.40
40516;DHT22;26216;53.724;9.898;2023-04-06T00:28:37;3.70;80.50
40516;DHT22;26216;53.724;9.898;2023-04-06T00:31:03;3.70;80.50
40516;DHT22;26216;53.724;9.898;2023-04-06T00:33:29;3.70;80.60
40516;DHT22;26216;53.724;9.898;2023-04-06T00:35:55;3.70;80.60
40516;DHT22;26216;53.724;9.898;2023-04-06T00:38:22;3.70;80.70
40516;DHT22;26216;53.724;9.898;2023-04-06T00:40:47;3.70;80.70
40516;DHT22;26216;53.724;9.898;2023-04-06T00:43:14;3.60;80.70
40516;DHT22;26216;53.724;9.898;2023-04-06T00:45:41;3.60;80.70
40516;DHT22;26216;53.724;9.898;2023-04-06T00:48:08;3.60;80.80
40516;DHT22;26216;53.724;9.898;2023-04-06T00:50:34;3.60;80.80
40516;DHT22;26216;53.724;9.898;2023-04-06T00:53:01;3.60;80.90
40516;DHT22;26216;53.724;9.898;2023-04-06T00:55:27;3.60;80.80
40516;DHT22;26216;53.724;9.898;2023-04-06T00:57:54;3.50;80.80
40516;DHT22;26216;53.724;9.898;2023-04-06T01:00:20;3.60;80.90
40516;DHT22;26216;53.724;9.898;2023-04-06T01:02:46;3.50;80.90
40516;DHT22;26216;53.724;9.898;2023-04-06T01:05:13;3.50;81.00
40516;DHT22;26216;53.724;9.898;2023-04-06T01:07:39;3.50;81.00
40516;DHT22;26216;53.724;9.898;2023-04-06T01:10:06;3.50;81.00
40516;DHT22;26216;53.724;9.898;2023-04-06T01:12:32;3.50;81.00
40516;DHT22;26216;53.724;9.898;2023-04-06T01:14:57;3.50;81.10
40516;DHT22;26216;53.724;9.898;2023-04-06T01:17:23;3.40;81.10
40516;DHT22;26216;53.724;9.898;2023-04-06T01:19:49;3.40;81.20
40516;DHT22;26216;53.724;9.898;2023-04-06T01:22:17;3.40;81.20
40516;DHT22;26216;53.724;9.898;2023-04-06T01:24:43;3.40;81.20
40516;DHT22;26216;53.724;9.898;2023-04-06T01:27:09;3.40;81.20
40516;DHT22;26216;53.724;9.898;2023-04-06T01:29:35;3.40;81.80
40516;DHT22;26216;53.724;9.898;2023-04-06T01:32:01;3.40;81.30
40516;DHT22;26216;53.724;9.898;2023-04-06T01:34:27;3.30;81.30
40516;DHT22;26216;53.724;9.898;2023-04-06T01:36:53;3.30;81.40
40516;DHT22;26216;53.724;9.898;2023-04-06T01:39:19;3.30;81.50
40516;DHT22;26216;53.724;9.898;2023-04-06T01:41:45;3.30;81.50
40516;DHT22;26216;53.724;9.898;2023-04-06T01:44:16;3.30;81.50
40516;DHT22;26216;53.724;9.898;2023-04-06T01:46:43;3.30;81.60
40516;DHT22;26216;53.724;9.898;2023-04-06T01:49:09;3.30;81.70
40516;DHT22;26216;53.724;9.898;2023-04-06T01:51:35;3.20;81.80
40516;DHT22;26216;53.724;9.898;2023-04-06T01:54:01;3.20;82.00
40516;DHT22;26216;53.724;9.898;2023-04-06T01:56:27;3.20;82.00
40516;DHT22;26216;53.724;9.898;2023-04-06T01:58:52;3.20;82.60
40516;DHT22;26216;53.724;9.898;2023-04-06T02:01:18;3.20;82.10
40516;DHT22;26216;53.724;9.898;2023-04-06T02:03:44;3.20;82.10
40516;DHT22;26216;53.724;9.898;2023-04-06T02:06:10;3.10;82.20
40516;DHT22;26216;53.724;9.898;2023-04-06T02:08:36;3.10;82.20
40516;DHT22;26216;53.724;9.898;2023-04-06T02:11:02;3.10;82.20
40516;DHT22;26216;53.724;9.898;2023-04-06T02:13:28;3.10;82.30
40516;DHT22;26216;53.724;9.898;2023-04-06T02:15:53;3.10;82.30
40516;DHT22;26216;53.724;9.898;2023-04-06T02:18:20;3.10;82.20
40516;DHT22;26216;53.724;9.898;2023-04-06T02:20:46;3.00;82.20
40516;DHT22;26216;53.724;9.898;2023-04-06T02:23:12;3.10;82.40
40516;DHT22;26216;53.724;9.898;2023-04-06T02:25:38;3.00;82.40
40516;DHT22;26216;53.724;9.898;2023-04-06T02:28:04;3.00;82.60
40516;DHT22;26216;53.724;9.898;2023-04-06T02:30:29;3.00;82.70
40516;DHT22;26216;53.724;9.898;2023-04-06T02:32:57;3.00;82.70
40516;DHT22;26216;53.724;9.898;2023-04-06T02:35:24;3.00;82.70
40516;DHT22;26216;53.724;9.898;2023-04-06T02:37:50;3.00;82.70
40516;DHT22;26216;53.724;9.898;2023-04-06T02:40:16;2.90;82.50
40516;DHT22;26216;53.724;9.898;2023-04-06T02:42:42;2.90;82.60
40516;DHT22;26216;53.724;9.898;2023-04-06T02:45:08;2.90;82.70
40516;DHT22;26216;53.724;9.898;2023-04-06T02:47:34;2.90;82.70
40516;DHT22;26216;53.724;9.898;2023-04-06T02:50:00;2.90;82.60
40516;DHT22;26216;53.724;9.898;2023-04-06T02:52:26;2.90;82.80
40516;DHT22;26216;53.724;9.898;2023-04-06T02:54:52;2.90;82.60
40516;DHT22;26216;53.724;9.898;2023-04-06T02:57:18;2.90;83.00
40516;DHT22;26216;53.724;9.898;2023-04-06T02:59:43;2.80;83.40
40516;DHT22;26216;53.724;9.898;2023-04-06T03:02:09;2.80;83.60
40516;DHT22;26216;53.724;9.898;2023-04-06T03:04:35;2.80;83.60
40516;DHT22;26216;53.724;9.898;2023-04-06T03:07:01;2.80;83.80
40516;DHT22;26216;53.724;9.898;2023-04-06T03:09:27;2.80;83.60
40516;DHT22;26216;53.724;9.898;2023-04-06T03:11:53;2.80;83.70
40516;DHT22;26216;53.724;9.898;2023-04-06T03:14:19;2.80;83.90
40516;DHT22;26216;53.724;9.898;2023-04-06T03:16:48;2.70;84.10
40516;DHT22;26216;53.724;9.898;2023-04-06T03:19:14;2.70;84.20
40516;DHT22;26216;53.724;9.898;2023-04-06T03:21:41;2.70;84.50
40516;DHT22;26216;53.724;9.898;2023-04-06T03:24:07;2.70;84.30
40516;DHT22;26216;53.724;9.898;2023-04-06T03:26:33;2.70;84.50
40516;DHT22;26216;53.724;9.898;2023-04-06T03:28:59;2.70;84.60
40516;DHT22;26216;53.724;9.898;2023-04-06T03:31:26;2.60;84.50
40516;DHT22;26216;53.724;9.898;2023-04-06T03:33:52;2.60;84.30
40516;DHT22;26216;53.724;9.898;2023-04-06T03:36:18;2.60;84.50
40516;DHT22;26216;53.724;9.898;2023-04-06T03:38:44;2.60;84.60
40516;DHT22;26216;53.724;9.898;2023-04-06T03:41:10;2.60;84.60
40516;DHT22;26216;53.724;9.898;2023-04-06T03:43:36;2.60;84.80
40516;DHT22;26216;53.724;9.898;2023-04-06T03:46:01;2.60;84.90
40516;DHT22;26216;53.724;9.898;2023-04-06T03:48:27;2.60;84.90
40516;DHT22;26216;53.724;9.898;2023-04-06T03:50:53;2.60;84.90
40516;DHT22;26216;53.724;9.898;2023-04-06T03:53:19;2.50;85.10
40516;DHT22;26216;53.724;9.898;2023-04-06T03:55:45;2.50;85.20
40516;DHT22;26216;53.724;9.898;2023-04-06T03:58:11;2.50;85.90
40516;DHT22;26216;53.724;9.898;2023-04-06T04:00:37;2.50;86.20
40516;DHT22;26216;53.724;9.898;2023-04-06T04:03:03;2.50;86.20
40516;DHT22;26216;53.724;9.898;2023-04-06T04:05:29;2.50;86.00
40516;DHT22;26216;53.724;9.898;2023-04-06T04:07:55;2.50;86.10
40516;DHT22;26216;53.724;9.898;2023-04-06T04:10:21;2.50;86.30
40516;DHT22;26216;53.724;9.898;2023-04-06T04:12:47;2.50;86.00
40516;DHT22;26216;53.724;9.898;2023-04-06T04:15:12;2.40;86.00
40516;DHT22;26216;53.724;9.898;2023-04-06T04:17:38;2.50;86.10
40516;DHT22;26216;53.724;9.898;2023-04-06T04:20:05;2.50;86.30
40516;DHT22;26216;53.724;9.898;2023-04-06T04:22:31;2.40;86.90
40516;DHT22;26216;53.724;9.898;2023-04-06T04:24:57;2.50;87.30
40516;DHT22;26216;53.724;9.898;2023-04-06T04:27:23;2.50;87.10
40516;DHT22;26216;53.724;9.898;2023-04-06T04:29:49;2.50;87.20
40516;DHT22;26216;53.724;9.898;2023-04-06T04:32:15;2.50;87.20
40516;DHT22;26216;53.724;9.898;2023-04-06T04:34:41;2.50;87.50
40516;DHT22;26216;53.724;9.898;2023-04-06T04:37:06;2.50;87.50
40516;DHT22;26216;53.724;9.898;2023-04-06T04:39:32;2.50;87.80
40516;DHT22;26216;53.724;9.898;2023-04-06T04:41:58;2.40;87.60
40516;DHT22;26216;53.724;9.898;2023-04-06T04:44:24;2.40;87.90
40516;DHT22;26216;53.724;9.898;2023-04-06T04:46:50;2.40;87.80
40516;DHT22;26216;53.724;9.898;2023-04-06T04:49:16;2.40;87.70
40516;DHT22;26216;53.724;9.898;2023-04-06T04:51:42;2.40;88.20
40516;DHT22;26216;53.724;9.898;2023-04-06T04:54:08;2.40;88.40
40516;DHT22;26216;53.724;9.898;2023-04-06T04:56:34;2.40;88.10
40516;DHT22;26216;53.724;9.898;2023-04-06T04:59:00;2.40;88.40
40516;DHT22;26216;53.724;9.898;2023-04-06T05:01:26;2.40;88.40
40516;DHT22;26216;53.724;9.898;2023-04-06T05:03:51;2.40;88.60
40516;DHT22;26216;53.724;9.898;2023-04-06T05:06:17;2.40;89.40
40516;DHT22;26216;53.724;9.898;2023-04-06T05:08:44;2.40;89.20
40516;DHT22;26216;53.724;9.898;2023-04-06T05:11:10;2.40;89.60
40516;DHT22;26216;53.724;9.898;2023-04-06T05:13:37;2.40;89.80
40516;DHT22;26216;53.724;9.898;2023-04-06T05:16:03;2.40;90.00
40516;DHT22;26216;53.724;9.898;2023-04-06T05:18:29;2.40;90.10
40516;DHT22;26216;53.724;9.898;2023-04-06T05:20:55;2.40;90.10
40516;DHT22;26216;53.724;9.898;2023-04-06T05:23:21;2.40;90.00
40516;DHT22;26216;53.724;9.898;2023-04-06T05:25:47;2.50;90.20
40516;DHT22;26216;53.724;9.898;2023-04-06T05:28:13;2.40;90.10
40516;DHT22;26216;53.724;9.898;2023-04-06T05:30:42;2.50;90.00
40516;DHT22;26216;53.724;9.898;2023-04-06T05:33:10;2.50;90.20
40516;DHT22;26216;53.724;9.898;2023-04-06T05:35:36;2.50;90.40
40516;DHT22;26216;53.724;9.898;2023-04-06T05:38:02;2.50;90.60
40516;DHT22;26216;53.724;9.898;2023-04-06T05:40:28;2.50;90.70
40516;DHT22;26216;53.724;9.898;2023-04-06T05:42:54;2.60;90.70
40516;DHT22;26216;53.724;9.898;2023-04-06T05:45:20;2.60;90.70
40516;DHT22;26216;53.724;9.898;2023-04-06T05:47:46;2.60;91.40
40516;DHT22;26216;53.724;9.898;2023-04-06T05:50:14;2.60;91.10
40516;DHT22;26216;53.724;9.898;2023-04-06T05:52:40;2.70;91.10
40516;DHT22;26216;53.724;9.898;2023-04-06T05:55:09;2.70;91.50
40516;DHT22;26216;53.724;9.898;2023-04-06T05:57:35;2.80;91.30
40516;DHT22;26216;53.724;9.898;2023-04-06T06:00:01;2.80;91.40
40516;DHT22;26216;53.724;9.898;2023-04-06T06:02:30;2.90;91.40
40516;DHT22;26216;53.724;9.898;2023-04-06T06:04:57;3.00;91.50
40516;DHT22;26216;53.724;9.898;2023-04-06T06:07:23;3.00;91.40
40516;DHT22;26216;53.724;9.898;2023-04-06T06:09:49;3.10;91.40
40516;DHT22;26216;53.724;9.898;2023-04-06T06:12:15;3.10;91.50
40516;DHT22;26216;53.724;9.898;2023-04-06T06:14:41;3.20;91.40
40516;DHT22;26216;53.724;9.898;2023-04-06T06:17:08;3.30;91.30
40516;DHT22;26216;53.724;9.898;2023-04-06T06:19:34;3.30;91.20
40516;DHT22;26216;53.724;9.898;2023-04-06T06:22:00;3.40;91.20
40516;DHT22;26216;53.724;9.898;2023-04-06T06:24:28;3.50;91.10
40516;DHT22;26216;53.724;9.898;2023-04-06T06:26:54;3.50;91.10
40516;DHT22;26216;53.724;9.898;2023-04-06T06:29:20;3.60;91.10
40516;DHT22;26216;53.724;9.898;2023-04-06T06:31:46;3.70;91.00
40516;DHT22;26216;53.724;9.898;2023-04-06T06:34:12;3.70;91.00
40516;DHT22;26216;53.724;9.898;2023-04-06T06:36:45;3.80;90.90
40516;DHT22;26216;53.724;9.898;2023-04-06T06:39:11;3.90;90.80
40516;DHT22;26216;53.724;9.898;2023-04-06T06:41:37;4.00;90.80
40516;DHT22;26216;53.724;9.898;2023-04-06T06:44:03;4.00;90.80
40516;DHT22;26216;53.724;9.898;2023-04-06T06:46:29;4.10;90.80
40516;DHT22;26216;53.724;9.898;2023-04-06T06:48:55;4.20;90.80
40516;DHT22;26216;53.724;9.898;2023-04-06T06:51:21;4.30;90.80
40516;DHT22;26216;53.724;9.898;2023-04-06T06:53:48;4.30;90.70
40516;DHT22;26216;53.724;9.898;2023-04-06T06:56:13;4.40;90.70
40516;DHT22;26216;53.724;9.898;2023-04-06T06:58:40;4.50;90.70
40516;DHT22;26216;53.724;9.898;2023-04-06T07:01:06;4.60;90.60
40516;DHT22;26216;53.724;9.898;2023-04-06T07:03:32;4.60;90.50
40516;DHT22;26216;53.724;9.898;2023-04-06T07:05:59;4.80;90.50
40516;DHT22;26216;53.724;9.898;2023-04-06T07:08:25;4.90;90.40
40516;DHT22;26216;53.724;9.898;2023-04-06T07:10:52;4.90;90.40
40516;DHT22;26216;53.724;9.898;2023-04-06T07:13:19;5.00;90.40
40516;DHT22;26216;53.724;9.898;2023-04-06T07:15:48;5.10;90.30
40516;DHT22;26216;53.724;9.898;2023-04-06T07:18:15;5.20;90.20
40516;DHT22;26216;53.724;9.898;2023-04-06T07:20:41;5.30;90.10
40516;DHT22;26216;53.724;9.898;2023-04-06T07:23:07;5.40;90.00
40516;DHT22;26216;53.724;9.898;2023-04-06T07:25:33;5.50;90.00
40516;DHT22;26216;53.724;9.898;2023-04-06T07:27:59;5.60;90.00
40516;DHT22;26216;53.724;9.898;2023-04-06T07:30:25;5.70;90.00
40516;DHT22;26216;53.724;9.898;2023-04-06T07:32:53;5.80;89.70
40516;DHT22;26216;53.724;9.898;2023-04-06T07:35:22;5.90;89.50
40516;DHT22;26216;53.724;9.898;2023-04-06T07:37:48;6.00;89.40
40516;DHT22;26216;53.724;9.898;2023-04-06T07:40:13;6.20;89.30
40516;DHT22;26216;53.724;9.898;2023-04-06T07:42:40;6.30;89.20
40516;DHT22;26216;53.724;9.898;2023-04-06T07:45:06;6.40;89.10
40516;DHT22;26216;53.724;9.898;2023-04-06T07:47:32;6.50;89.10
40516;DHT22;26216;53.724;9.898;2023-04-06T07:49:58;6.70;89.00
40516;DHT22;26216;53.724;9.898;2023-04-06T07:52:24;6.80;88.60
40516;DHT22;26216;53.724;9.898;2023-04-06T07:54:50;6.90;88.10
40516;DHT22;26216;53.724;9.898;2023-04-06T07:57:16;7.00;87.70
40516;DHT22;26216;53.724;9.898;2023-04-06T07:59:42;7.20;87.80
40516;DHT22;26216;53.724;9.898;2023-04-06T08:02:08;7.30;87.60
40516;DHT22;26216;53.724;9.898;2023-04-06T08:04:35;7.40;87.30
40516;DHT22;26216;53.724;9.898;2023-04-06T08:07:01;7.50;86.90
40516;DHT22;26216;53.724;9.898;2023-04-06T08:09:27;7.70;86.70
40516;DHT22;26216;53.724;9.898;2023-04-06T08:11:53;7.80;86.50
40516;DHT22;26216;53.724;9.898;2023-04-06T08:14:19;7.90;86.60
40516;DHT22;26216;53.724;9.898;2023-04-06T08:16:45;8.10;86.40
40516;DHT22;26216;53.724;9.898;2023-04-06T08:19:11;8.20;86.30
40516;DHT22;26216;53.724;9.898;2023-04-06T08:21:37;8.30;86.30
40516;DHT22;26216;53.724;9.898;2023-04-06T08:24:05;8.50;86.30
40516;DHT22;26216;53.724;9.898;2023-04-06T08:26:31;8.60;85.80
40516;DHT22;26216;53.724;9.898;2023-04-06T08:28:57;8.70;84.90
40516;DHT22;26216;53.724;9.898;2023-04-06T08:31:23;8.80;84.50
40516;DHT22;26216;53.724;9.898;2023-04-06T08:33:49;8.90;84.00
40516;DHT22;26216;53.724;9.898;2023-04-06T08:36:15;9.10;84.10
40516;DHT22;26216;53.724;9.898;2023-04-06T08:38:42;9.20;83.00
40516;DHT22;26216;53.724;9.898;2023-04-06T08:41:09;9.30;82.20
40516;DHT22;26216;53.724;9.898;2023-04-06T08:43:44;9.40;82.20
40516;DHT22;26216;53.724;9.898;2023-04-06T08:46:12;9.50;81.50
40516;DHT22;26216;53.724;9.898;2023-04-06T08:48:40;9.60;81.60
40516;DHT22;26216;53.724;9.898;2023-04-06T08:51:11;9.80;80.80
40516;DHT22;26216;53.724;9.898;2023-04-06T08:53:37;9.80;78.60
40516;DHT22;26216;53.724;9.898;2023-04-06T08:56:04;9.90;78.90
40516;DHT22;26216;53.724;9.898;2023-04-06T08:58:40;10.00;79.00
40516;DHT22;26216;53.724;9.898;2023-04-06T09:01:08;10.10;78.50
40516;DHT22;26216;53.724;9.898;2023-04-06T09:03:37;10.20;78.60
40516;DHT22;26216;53.724;9.898;2023-04-06T09:06:05;10.30;79.30
40516;DHT22;26216;53.724;9.898;2023-04-06T09:08:37;10.40;78.70
40516;DHT22;26216;53.724;9.898;2023-04-06T09:11:04;10.50;78.60
40516;DHT22;26216;53.724;9.898;2023-04-06T09:13:31;10.60;77.80
40516;DHT22;26216;53.724;9.898;2023-04-06T09:16:04;10.70;77.70
40516;DHT22;26216;53.724;9.898;2023-04-06T09:18:32;10.80;77.30
40516;DHT22;26216;53.724;9.898;2023-04-06T09:21:03;10.90;76.80
40516;DHT22;26216;53.724;9.898;2023-04-06T09:23:29;11.00;76.30
40516;DHT22;26216;53.724;9.898;2023-04-06T09:26:09;11.10;75.60
40516;DHT22;26216;53.724;9.898;2023-04-06T09:28:55;11.10;74.80
40516;DHT22;26216;53.724;9.898;2023-04-06T09:31:26;11.20;74.00
40516;DHT22;26216;53.724;9.898;2023-04-06T09:33:53;11.30;74.70
40516;DHT22;26216;53.724;9.898;2023-04-06T09:36:29;11.40;74.50
40516;DHT22;26216;53.724;9.898;2023-04-06T09:39:01;11.40;73.80
40516;DHT22;26216;53.724;9.898;2023-04-06T09:41:29;11.50;75.30
40516;DHT22;26216;53.724;9.898;2023-04-06T09:44:04;11.60;74.70
40516;DHT22;26216;53.724;9.898;2023-04-06T09:46:38;11.70;73.90
40516;DHT22;26216;53.724;9.898;2023-04-06T09:49:06;11.70;71.70
40516;DHT22;26216;53.724;9.898;2023-04-06T09:51:40;11.80;72.50
40516;DHT22;26216;53.724;9.898;2023-04-06T09:54:07;11.90;72.40
40516;DHT22;26216;53.724;9.898;2023-04-06T09:56:47;12.00;73.00
40516;DHT22;26216;53.724;9.898;2023-04-06T10:08:11;12.30;71.50
40516;DHT22;26216;53.724;9.898;2023-04-06T10:10:38;12.30;71.40
40516;DHT22;26216;53.724;9.898;2023-04-06T10:13:05;12.40;72.40
40516;DHT22;26216;53.724;9.898;2023-04-06T10:15:33;12.50;71.70
40516;DHT22;26216;53.724;9.898;2023-04-06T10:18:00;12.50;71.10
40516;DHT22;26216;53.724;9.898;2023-04-06T10:20:33;12.60;71.30
40516;DHT22;26216;53.724;9.898;2023-04-06T10:26:01;12.70;68.10
40516;DHT22;26216;53.724;9.898;2023-04-06T10:28:32;12.80;69.80
40516;DHT22;26216;53.724;9.898;2023-04-06T10:31:06;12.80;70.00
40516;DHT22;26216;53.724;9.898;2023-04-06T10:33:33;12.90;71.10
40516;DHT22;26216;53.724;9.898;2023-04-06T10:36:12;13.00;70.50
40516;DHT22;26216;53.724;9.898;2023-04-06T10:38:39;13.00;70.20
40516;DHT22;26216;53.724;9.898;2023-04-06T10:41:07;13.10;69.70
40516;DHT22;26216;53.724;9.898;2023-04-06T10:43:35;13.20;70.50
40516;DHT22;26216;53.724;9.898;2023-04-06T10:46:03;13.20;69.40
40516;DHT22;26216;53.724;9.898;2023-04-06T10:48:56;13.20;70.10
40516;DHT22;26216;53.724;9.898;2023-04-06T10:51:28;13.30;67.80
40516;DHT22;26216;53.724;9.898;2023-04-06T10:53:55;13.40;69.30
40516;DHT22;26216;53.724;9.898;2023-04-06T10:56:23;13.50;69.00
40516;DHT22;26216;53.724;9.898;2023-04-06T10:58:54;13.60;68.70
40516;DHT22;26216;53.724;9.898;2023-04-06T11:01:23;13.60;66.70
40516;DHT22;26216;53.724;9.898;2023-04-06T11:03:54;13.60;67.90
40516;DHT22;26216;53.724;9.898;2023-04-06T11:06:30;13.70;68.20
40516;DHT22;26216;53.724;9.898;2023-04-06T11:08:57;13.80;68.70
40516;DHT22;26216;53.724;9.898;2023-04-06T11:11:25;13.80;66.30
40516;DHT22;26216;53.724;9.898;2023-04-06T11:13:57;13.80;66.90
40516;DHT22;26216;53.724;9.898;2023-04-06T11:16:24;13.90;66.50
40516;DHT22;26216;53.724;9.898;2023-04-06T11:18:57;14.00;64.70
40516;DHT22;26216;53.724;9.898;2023-04-06T11:21:37;14.10;67.40
40516;DHT22;26216;53.724;9.898;2023-04-06T11:26:43;14.10;65.10
40516;DHT22;26216;53.724;9.898;2023-04-06T11:29:13;14.20;65.80
40516;DHT22;26216;53.724;9.898;2023-04-06T11:31:52;14.30;65.30
40516;DHT22;26216;53.724;9.898;2023-04-06T11:34:23;14.30;66.20
40516;DHT22;26216;53.724;9.898;2023-04-06T11:36:57;14.40;67.40
40516;DHT22;26216;53.724;9.898;2023-04-06T11:39:24;14.40;66.70
40516;DHT22;26216;53.724;9.898;2023-04-06T11:41:51;14.50;67.00
40516;DHT22;26216;53.724;9.898;2023-04-06T11:46:57;14.70;66.60
40516;DHT22;26216;53.724;9.898;2023-04-06T11:49:30;14.70;65.90
40516;DHT22;26216;53.724;9.898;2023-04-06T11:51:57;14.80;65.50
40516;DHT22;26216;53.724;9.898;2023-04-06T11:54:37;14.90;66.10
40516;DHT22;26216;53.724;9.898;2023-04-06T11:57:04;14.80;66.20
40516;DHT22;26216;53.724;9.898;2023-04-06T11:59:33;14.90;65.50
40516;DHT22;26216;53.724;9.898;2023-04-06T12:02:01;15.00;63.60
40516;DHT22;26216;53.724;9.898;2023-04-06T12:04:28;15.10;64.00
40516;DHT22;26216;53.724;9.898;2023-04-06T12:06:54;15.10;64.80
40516;DHT22;26216;53.724;9.898;2023-04-06T12:09:20;15.10;64.70
40516;DHT22;26216;53.724;9.898;2023-04-06T12:11:47;15.10;65.20
40516;DHT22;26216;53.724;9.898;2023-04-06T12:14:13;15.20;64.70
40516;DHT22;26216;53.724;9.898;2023-04-06T12:16:40;15.20;64.20
40516;DHT22;26216;53.724;9.898;2023-04-06T12:19:06;15.30;64.50
40516;DHT22;26216;53.724;9.898;2023-04-06T12:21:34;15.30;65.00
40516;DHT22;26216;53.724;9.898;2023-04-06T12:24:01;15.40;65.60
40516;DHT22;26216;53.724;9.898;2023-04-06T12:26:27;15.50;64.50
40516;DHT22;26216;53.724;9.898;2023-04-06T12:28:54;15.50;65.00
40516;DHT22;26216;53.724;9.898;2023-04-06T12:31:21;15.60;65.20
40516;DHT22;26216;53.724;9.898;2023-04-06T12:33:49;15.60;65.10
40516;DHT22;26216;53.724;9.898;2023-04-06T12:36:17;15.70;64.90
40516;DHT22;26216;53.724;9.898;2023-04-06T12:38:50;15.80;64.80
40516;DHT22;26216;53.724;9.898;2023-04-06T12:41:20;15.80;64.30
40516;DHT22;26216;53.724;9.898;2023-04-06T12:43:46;15.80;64.10
40516;DHT22;26216;53.724;9.898;2023-04-06T12:46:12;15.90;63.40
40516;DHT22;26216;53.724;9.898;2023-04-06T12:48:38;15.90;63.90
40516;DHT22;26216;53.724;9.898;2023-04-06T12:51:05;16.00;62.40
40516;DHT22;26216;53.724;9.898;2023-04-06T12:53:33;16.00;63.40
40516;DHT22;26216;53.724;9.898;2023-04-06T12:56:00;16.00;64.00
40516;DHT22;26216;53.724;9.898;2023-04-06T12:58:27;16.10;65.00
40516;DHT22;26216;53.724;9.898;2023-04-06T13:00:54;16.10;63.40
40516;DHT22;26216;53.724;9.898;2023-04-06T13:03:21;16.20;63.10
40516;DHT22;26216;53.724;9.898;2023-04-06T13:05:49;16.20;63.80
40516;DHT22;26216;53.724;9.898;2023-04-06T13:08:16;16.30;61.40
40516;DHT22;26216;53.724;9.898;2023-04-06T13:10:50;16.30;61.90
40516;DHT22;26216;53.724;9.898;2023-04-06T13:13:21;16.40;61.50
40516;DHT22;26216;53.724;9.898;2023-04-06T13:15:47;16.40;61.20
40516;DHT22;26216;53.724;9.898;2023-04-06T13:18:13;16.40;61.30
40516;DHT22;26216;53.724;9.898;2023-04-06T13:20:40;16.40;61.80
40516;DHT22;26216;53.724;9.898;2023-04-06T13:23:06;16.40;61.10
40516;DHT22;26216;53.724;9.898;2023-04-06T13:25:32;16.40;61.30
40516;DHT22;26216;53.724;9.898;2023-04-06T13:27:59;16.40;61.30
40516;DHT22;26216;53.724;9.898;2023-04-06T13:30:25;16.40;60.80
40516;DHT22;26216;53.724;9.898;2023-04-06T13:32:51;16.50;60.30
40516;DHT22;26216;53.724;9.898;2023-04-06T13:35:17;16.50;60.40
40516;DHT22;26216;53.724;9.898;2023-04-06T13:37:44;16.50;60.70
40516;DHT22;26216;53.724;9.898;2023-04-06T13:40:10;16.50;59.80
40516;DHT22;26216;53.724;9.898;2023-04-06T13:42:36;16.60;60.70
40516;DHT22;26216;53.724;9.898;2023-04-06T13:45:06;16.60;61.00
40516;DHT22;26216;53.724;9.898;2023-04-06T13:47:32;16.60;60.40
40516;DHT22;26216;53.724;9.898;2023-04-06T13:49:58;16.60;59.80
40516;DHT22;26216;53.724;9.898;2023-04-06T13:52:25;16.60;59.80
40516;DHT22;26216;53.724;9.898;2023-04-06T13:54:52;16.60;60.80
40516;DHT22;26216;53.724;9.898;2023-04-06T13:57:18;16.70;60.40
40516;DHT22;26216;53.724;9.898;2023-04-06T13:59:44;16.70;60.50
40516;DHT22;26216;53.724;9.898;2023-04-06T14:02:10;16.70;60.70
40516;DHT22;26216;53.724;9.898;2023-04-06T14:04:37;16.80;60.20
40516;DHT22;26216;53.724;9.898;2023-04-06T14:07:04;16.80;60.40
40516;DHT22;26216;53.724;9.898;2023-04-06T14:09:32;16.80;59.50
40516;DHT22;26216;53.724;9.898;2023-04-06T14:11:59;16.80;57.90
40516;DHT22;26216;53.724;9.898;2023-04-06T14:14:25;16.90;58.80
40516;DHT22;26216;53.724;9.898;2023-04-06T14:16:52;16.90;60.40
40516;DHT22;26216;53.724;9.898;2023-04-06T14:19:18;16.90;59.70
40516;DHT22;26216;53.724;9.898;2023-04-06T14:21:45;16.90;59.90
40516;DHT22;26216;53.724;9.898;2023-04-06T14:24:11;16.90;60.30
40516;DHT22;26216;53.724;9.898;2023-04-06T14:26:38;17.00;59.80
40516;DHT22;26216;53.724;9.898;2023-04-06T14:29:05;17.00;59.10
40516;DHT22;26216;53.724;9.898;2023-04-06T14:31:32;17.00;59.20
40516;DHT22;26216;53.724;9.898;2023-04-06T14:34:00;17.00;58.70
40516;DHT22;26216;53.724;9.898;2023-04-06T14:36:26;17.00;58.90
40516;DHT22;26216;53.724;9.898;2023-04-06T14:38:58;17.00;58.80
40516;DHT22;26216;53.724;9.898;2023-04-06T14:41:24;17.10;59.40
40516;DHT22;26216;53.724;9.898;2023-04-06T14:43:50;17.10;59.50
40516;DHT22;26216;53.724;9.898;2023-04-06T14:46:18;17.10;59.30
40516;DHT22;26216;53.724;9.898;2023-04-06T14:48:46;17.20;58.90
40516;DHT22;26216;53.724;9.898;2023-04-06T14:51:14;17.10;59.30
40516;DHT22;26216;53.724;9.898;2023-04-06T14:53:43;17.20;58.80
40516;DHT22;26216;53.724;9.898;2023-04-06T14:56:09;17.20;58.50
40516;DHT22;26216;53.724;9.898;2023-04-06T14:58:35;17.20;58.20
40516;DHT22;26216;53.724;9.898;2023-04-06T15:01:02;17.20;58.90
40516;DHT22;26216;53.724;9.898;2023-04-06T15:03:29;17.20;58.90
40516;DHT22;26216;53.724;9.898;2023-04-06T15:05:56;17.20;58.20
40516;DHT22;26216;53.724;9.898;2023-04-06T15:08:23;17.20;57.40
40516;DHT22;26216;53.724;9.898;2023-04-06T15:10:50;17.20;57.90
40516;DHT22;26216;53.724;9.898;2023-04-06T15:13:17;17.20;56.50
40516;DHT22;26216;53.724;9.898;2023-04-06T15:15:44;17.10;57.40
40516;DHT22;26216;53.724;9.898;2023-04-06T15:18:10;17.20;57.50
40516;DHT22;26216;53.724;9.898;2023-04-06T15:20:37;17.10;57.40
40516;DHT22;26216;53.724;9.898;2023-04-06T15:23:03;17.10;57.70
40516;DHT22;26216;53.724;9.898;2023-04-06T15:25:29;17.10;57.20
40516;DHT22;26216;53.724;9.898;2023-04-06T15:27:56;17.00;58.30
40516;DHT22;26216;53.724;9.898;2023-04-06T15:30:22;17.10;58.70
40516;DHT22;26216;53.724;9.898;2023-04-06T15:32:58;17.10;58.40
40516;DHT22;26216;53.724;9.898;2023-04-06T15:35:30;17.10;58.00
40516;DHT22;26216;53.724;9.898;2023-04-06T15:37:56;17.10;58.50
40516;DHT22;26216;53.724;9.898;2023-04-06T15:40:24;17.10;58.00
40516;DHT22;26216;53.724;9.898;2023-04-06T15:42:50;17.10;57.70
40516;DHT22;26216;53.724;9.898;2023-04-06T15:45:16;17.10;57.50
40516;DHT22;26216;53.724;9.898;2023-04-06T15:47:44;17.10;57.40
40516;DHT22;26216;53.724;9.898;2023-04-06T15:50:11;17.10;56.70
40516;DHT22;26216;53.724;9.898;2023-04-06T15:52:39;17.10;57.20
40516;DHT22;26216;53.724;9.898;2023-04-06T15:55:06;17.10;57.00
40516;DHT22;26216;53.724;9.898;2023-04-06T15:57:33;17.10;57.10